Time;durP1;ratioP1;P1;durP2;ratioP2;P2;SDS_P1;SDS_P2;PMS_P1;PMS_P2;Temp;Humidity;BMP_temperature;BMP_pressure;BME280_temperature;BME280_humidity;BME280_pressure;Samples;Min_cycle;Max_cycle;Signal;HPM_P1;HPM_P2
2021/05/28 00:02:14;;;;;;;7.70;3.95;;;435.50;2227.20;;;;;;5052870;28;20037;-63
2021/05/28 00:04:41;;;;;;;9.13;3.58;;;435.40;2201.60;;;;;;5052942;28;20474;-62
2021/05/28 00:07:08;;;;;;;7.30;4.20;;;435.50;2201.60;;;;;;5052931;28;20032;-63
2021/05/28 00:09:35;;;;;;;8.98;3.80;;;435.40;2201.60;;;;;;5052705;28;20032;-63
2021/05/28 00:12:01;;;;;;;10.15;4.00;;;435.40;2201.60;;;;;;5053182;28;20021;-63
2021/05/28 00:14:27;;;;;;;7.13;3.95;;;435.40;2201.60;;;;;;5052853;28;20502;-62
2021/05/28 00:16:54;;;;;;;6.15;3.72;;;435.50;2201.60;;;;;;5052822;28;20021;-63
2021/05/28 00:19:20;;;;;;;4.90;3.63;;;435.40;2201.60;;;;;;5052521;28;20044;-61
2021/05/28 00:21:45;;;;;;;4.45;3.58;;;435.50;2201.60;;;;;;5052758;28;20021;-62
2021/05/28 00:24:11;;;;;;;9.07;3.92;;;435.50;2201.60;;;;;;5052661;28;20024;-64
2021/05/28 00:26:37;;;;;;;5.25;3.80;;;435.60;2176.00;;;;;;5052551;28;20017;-62
2021/05/28 00:29:04;;;;;;;7.25;4.30;;;435.60;2176.00;;;;;;5052506;28;20459;-63
2021/05/28 00:31:30;;;;;;;6.50;4.50;;;435.70;2176.00;;;;;;5052534;28;20102;-62
2021/05/28 00:33:55;;;;;;;6.57;4.53;;;435.70;2201.60;;;;;;5052303;28;20474;-62
2021/05/28 00:36:21;;;;;;;8.95;3.67;;;435.80;2201.60;;;;;;5052466;28;20040;-63
2021/05/28 00:38:47;;;;;;;6.28;3.88;;;435.60;2227.20;;;;;;5052398;28;20043;-63
2021/05/28 00:41:14;;;;;;;4.68;3.78;;;435.50;2227.20;;;;;;5051997;28;20398;-63
2021/05/28 00:43:40;;;;;;;6.43;3.78;;;435.50;2252.80;;;;;;5052274;28;20032;-63
2021/05/28 00:46:05;;;;;;;6.05;3.67;;;435.50;2201.60;;;;;;5052158;28;20021;-63
2021/05/28 00:48:31;;;;;;;7.93;3.08;;;435.50;2176.00;;;;;;5052116;28;20021;-63
2021/05/28 00:50:57;;;;;;;6.22;3.13;;;435.60;2150.40;;;;;;5052027;28;20025;-62
2021/05/28 00:53:24;;;;;;;10.10;3.30;;;435.60;2150.40;;;;;;5052231;28;20032;-62
2021/05/28 00:55:50;;;;;;;5.53;3.60;;;435.60;2176.00;;;;;;5052276;28;20378;-63
2021/05/28 00:58:17;;;;;;;6.88;3.58;;;435.60;2201.60;;;;;;5052066;28;20037;-63
2021/05/28 01:00:43;;;;;;;4.35;3.17;;;435.60;2201.60;;;;;;5051750;28;20374;-63
2021/05/28 01:03:09;;;;;;;5.70;3.80;;;435.50;2176.00;;;;;;5051898;28;20025;-62
2021/05/28 01:05:35;;;;;;;6.22;3.63;;;435.50;2176.00;;;;;;5051526;28;20028;-63
2021/05/28 01:08:01;;;;;;;5.20;3.78;;;435.60;2150.40;;;;;;5051696;28;20375;-62
2021/05/28 01:10:26;;;;;;;7.57;4.20;;;435.60;2150.40;;;;;;5051967;28;20017;-62
2021/05/28 01:13:01;;;;;;;16.58;4.68;;;435.70;2150.40;;;;;;5051746;28;20068;-63
2021/05/28 01:15:26;;;;;;;8.73;4.07;;;435.80;2150.40;;;;;;5051668;28;20028;-63
2021/05/28 01:17:52;;;;;;;8.95;4.07;;;435.70;2150.40;;;;;;5051371;28;20479;-62
2021/05/28 01:20:17;;;;;;;10.32;4.40;;;435.60;2176.00;;;;;;5051537;28;20024;-63
2021/05/28 01:22:43;;;;;;;10.30;3.95;;;435.50;2201.60;;;;;;5051525;28;20493;-63
2021/05/28 01:25:09;;;;;;;7.70;4.18;;;435.50;2201.60;;;;;;5051799;28;20066;-63
2021/05/28 01:27:35;;;;;;;5.90;4.15;;;435.40;2201.60;;;;;;5051215;28;20036;-63
2021/05/28 01:30:01;;;;;;;11.70;4.28;;;435.40;2227.20;;;;;;5051385;28;20104;-63
2021/05/28 01:32:27;;;;;;;7.93;3.60;;;435.40;2227.20;;;;;;5051187;28;20029;-63
2021/05/28 01:34:53;;;;;;;8.23;3.72;;;435.30;2227.20;;;;;;5051060;28;20479;-63
2021/05/28 01:37:18;;;;;;;4.85;3.40;;;435.30;2227.20;;;;;;5051389;28;20017;-63
2021/05/28 01:39:50;;;;;;;11.10;4.07;;;435.20;2252.80;;;;;;5051161;28;20442;-62
2021/05/28 01:42:17;;;;;;;8.52;3.97;;;410.50;2252.80;;;;;;5050998;28;20052;-65
2021/05/28 01:44:44;;;;;;;6.03;3.83;;;410.50;2252.80;;;;;;5051062;28;20032;-63
2021/05/28 01:47:10;;;;;;;7.43;3.40;;;410.50;2278.40;;;;;;5051098;28;20033;-63
2021/05/28 01:49:43;;;;;;;9.02;4.22;;;410.50;2278.40;;;;;;5050814;28;20033;-64
2021/05/28 01:52:09;;;;;;;6.70;3.10;;;410.50;2278.40;;;;;;5050795;28;20138;-63
2021/05/28 01:54:39;;;;;;;5.63;3.60;;;410.50;2278.40;;;;;;5050814;28;20029;-64
2021/05/28 01:57:06;;;;;;;8.10;3.22;;;410.50;2278.40;;;;;;5050565;28;20028;-63
2021/05/28 01:59:32;;;;;;;8.05;3.22;;;410.40;2278.40;;;;;;5050589;28;20033;-64
2021/05/28 02:01:58;;;;;;;5.93;2.90;;;410.40;2278.40;;;;;;5050646;28;20059;-64
2021/05/28 02:04:24;;;;;;;6.57;3.10;;;410.40;2278.40;;;;;;5050499;28;20033;-61
2021/05/28 02:06:50;;;;;;;5.95;2.70;;;410.40;2278.40;;;;;;5050580;28;20021;-64
2021/05/28 02:09:16;;;;;;;6.40;2.65;;;410.40;2252.80;;;;;;5050817;28;20037;-62
2021/05/28 02:11:42;;;;;;;8.20;2.47;;;410.40;2227.20;;;;;;5050385;28;20036;-63
2021/05/28 02:14:09;;;;;;;4.57;2.83;;;410.30;2227.20;;;;;;5050685;28;20033;-62
2021/05/28 02:16:36;;;;;;;6.57;2.53;;;410.30;2201.60;;;;;;5050378;28;20055;-62
2021/05/28 02:19:02;;;;;;;6.65;3.00;;;410.20;2227.20;;;;;;5049736;28;20021;-62
2021/05/28 02:21:29;;;;;;;5.43;3.10;;;410.20;2201.60;;;;;;5050693;28;20029;-63
2021/05/28 02:23:55;;;;;;;4.50;2.08;;;410.10;2201.60;;;;;;5050477;28;20151;-63
2021/05/28 02:26:21;;;;;;;6.80;2.78;;;410.00;2201.60;;;;;;5050414;28;20021;-63
2021/05/28 02:28:46;;;;;;;6.45;2.40;;;409.80;2176.00;;;;;;5050340;28;20124;-62
2021/05/28 02:31:12;;;;;;;5.47;2.20;;;409.70;2201.60;;;;;;5050128;28;20112;-63
2021/05/28 02:33:38;;;;;;;6.43;2.15;;;384.90;2176.00;;;;;;5050415;28;20490;-62
2021/05/28 02:36:06;;;;;;;5.55;2.25;;;384.80;2201.60;;;;;;5050092;28;20067;-63
2021/05/28 02:38:32;;;;;;;4.63;2.70;;;384.70;2201.60;;;;;;5050300;28;20360;-63
2021/05/28 02:40:58;;;;;;;4.95;2.35;;;384.70;2176.00;;;;;;5050343;28;20017;-61
2021/05/28 02:43:24;;;;;;;41.20;8.60;;;384.60;2176.00;;;;;;5050003;28;20418;-62
2021/05/28 02:45:50;;;;;;;10.20;3.05;;;384.50;2201.60;;;;;;5050111;28;20475;-62
2021/05/28 02:48:16;;;;;;;5.53;3.00;;;384.40;2201.60;;;;;;5049980;28;20033;-62
2021/05/28 02:50:42;;;;;;;6.88;2.85;;;384.50;2201.60;;;;;;5049727;28;20021;-63
2021/05/28 02:53:10;;;;;;;8.20;4.25;;;384.30;2201.60;;;;;;5050067;28;20029;-62
2021/05/28 02:55:36;;;;;;;6.60;3.25;;;384.30;2201.60;;;;;;5049920;28;20084;-62
2021/05/28 02:58:02;;;;;;;5.20;3.30;;;384.30;2227.20;;;;;;5049800;28;20048;-62
2021/05/28 03:00:27;;;;;;;5.20;3.60;;;384.30;2201.60;;;;;;5049913;28;20036;-62
2021/05/28 03:02:53;;;;;;;11.90;4.32;;;384.30;2227.20;;;;;;5049723;28;20029;-62
2021/05/28 03:05:19;;;;;;;10.13;4.85;;;384.30;2227.20;;;;;;5049921;28;20023;-62
2021/05/28 03:07:44;;;;;;;8.80;4.68;;;384.30;2227.20;;;;;;5049888;28;20036;-62
2021/05/28 03:10:11;;;;;;;6.07;4.20;;;384.20;2227.20;;;;;;5049990;28;20021;-61
2021/05/28 03:12:37;;;;;;;4.78;4.32;;;384.10;2227.20;;;;;;5049960;28;20036;-62
2021/05/28 03:15:04;;;;;;;6.35;4.43;;;384.10;2227.20;;;;;;5049742;28;20021;-62
2021/05/28 03:17:29;;;;;;;6.38;4.57;;;384.00;2227.20;;;;;;5049906;28;20033;-62
2021/05/28 03:19:55;;;;;;;5.55;4.75;;;384.00;2227.20;;;;;;5049561;28;20071;-62
2021/05/28 03:22:33;;;;;;;4.22;3.80;;;384.00;2252.80;;;;;;5049620;28;20025;-62
2021/05/28 03:25:08;;;;;;;4.90;4.30;;;384.00;2227.20;;;;;;5049793;28;20021;-62
2021/05/28 03:27:35;;;;;;;6.80;4.03;;;359.30;2252.80;;;;;;5049482;28;20043;-62
2021/05/28 03:30:03;;;;;;;6.38;3.75;;;384.10;2201.60;;;;;;5051098;28;20029;-63
2021/05/28 03:32:28;;;;;;;4.72;3.22;;;384.10;2201.60;;;;;;5053428;28;20052;-62
2021/05/28 03:34:54;;;;;;;5.00;3.60;;;384.00;2201.60;;;;;;5053680;28;20063;-62
2021/05/28 03:37:20;;;;;;;6.07;3.10;;;359.30;2227.20;;;;;;5053475;28;20460;-63
2021/05/28 03:39:47;;;;;;;8.80;3.83;;;359.30;2227.20;;;;;;5053545;28;20057;-63
2021/05/28 03:42:12;;;;;;;4.55;3.53;;;384.00;2227.20;;;;;;5053168;28;20041;-63
2021/05/28 03:44:38;;;;;;;4.85;3.60;;;384.00;2227.20;;;;;;5053325;28;20033;-62
2021/05/28 03:47:05;;;;;;;5.28;2.70;;;359.30;2227.20;;;;;;5053222;28;20017;-63
2021/05/28 03:49:30;;;;;;;4.35;2.88;;;359.30;2252.80;;;;;;5055956;28;20418;-62
2021/05/28 03:51:56;;;;;;;5.45;3.03;;;359.20;2252.80;;;;;;5061171;28;20021;-62
2021/05/28 03:54:22;;;;;;;3.92;2.72;;;359.20;2278.40;;;;;;5053049;28;20025;-63
2021/05/28 03:56:48;;;;;;;7.53;3.00;;;359.00;2304.00;;;;;;5053257;28;20021;-62
2021/05/28 03:59:14;;;;;;;3.60;2.55;;;359.00;2329.60;;;;;;5053043;28;20092;-62
2021/05/28 04:01:40;;;;;;;3.35;2.58;;;359.00;2329.60;;;;;;5052849;28;20135;-63
2021/05/28 04:04:06;;;;;;;3.30;2.47;;;358.80;2329.60;;;;;;5053029;28;20029;-62
2021/05/28 04:06:32;;;;;;;5.43;2.85;;;358.80;2329.60;;;;;;5052943;28;20029;-62
2021/05/28 04:08:58;;;;;;;5.65;3.58;;;358.80;2329.60;;;;;;5052896;28;20029;-63
2021/05/28 04:11:23;;;;;;;4.75;3.20;;;358.70;2329.60;;;;;;5052815;28;20028;-62
2021/05/28 04:13:51;;;;;;;7.22;2.80;;;358.70;2329.60;;;;;;5053022;28;20493;-62
2021/05/28 04:16:16;;;;;;;6.03;3.58;;;358.60;2329.60;;;;;;5053021;28;20033;-62
2021/05/28 04:18:42;;;;;;;4.90;3.20;;;358.70;2329.60;;;;;;5052752;28;20051;-63
2021/05/28 04:21:08;;;;;;;5.18;3.80;;;358.70;2329.60;;;;;;5052810;28;20052;-64
2021/05/28 04:23:34;;;;;;;7.10;3.40;;;358.40;2329.60;;;;;;5052462;28;20108;-63
2021/05/28 04:26:00;;;;;;;4.68;3.38;;;333.70;2329.60;;;;;;5052518;28;20387;-63
2021/05/28 04:28:27;;;;;;;7.15;2.90;;;333.60;2329.60;;;;;;5052562;28;20032;-63
2021/05/28 04:30:57;;;;;;;5.25;3.65;;;333.60;2329.60;;;;;;5052320;28;20382;-62
2021/05/28 04:33:23;;;;;;;5.38;3.50;;;333.60;2329.60;;;;;;5052140;28;20029;-63
2021/05/28 04:35:49;;;;;;;5.18;3.65;;;333.60;2329.60;;;;;;5052768;28;20116;-62
2021/05/28 04:38:16;;;;;;;4.65;3.35;;;333.50;2329.60;;;;;;5052529;28;20032;-63
2021/05/28 04:40:42;;;;;;;4.80;2.90;;;333.50;2329.60;;;;;;5052130;28;20021;-64
2021/05/28 04:43:08;;;;;;;3.58;2.78;;;333.50;2329.60;;;;;;5051744;28;20049;-63
2021/05/28 04:45:35;;;;;;;4.70;2.63;;;333.50;2329.60;;;;;;5052031;28;20060;-64
2021/05/28 04:48:01;;;;;;;3.92;3.08;;;333.50;2329.60;;;;;;5052013;28;20033;-64
2021/05/28 04:50:31;;;;;;;3.75;2.80;;;333.60;2329.60;;;;;;5052235;28;20031;-63
2021/05/28 04:52:58;;;;;;;8.48;3.15;;;333.50;2329.60;;;;;;5052023;28;20057;-62
2021/05/28 04:55:25;;;;;;;5.00;3.03;;;333.40;2329.60;;;;;;5051953;28;20462;-63
2021/05/28 04:57:51;;;;;;;5.45;2.88;;;333.40;2329.60;;;;;;5052217;28;20599;-63
2021/05/28 05:00:17;;;;;;;3.50;2.90;;;333.50;2329.60;;;;;;5051968;28;20155;-63
2021/05/28 05:02:43;;;;;;;3.72;2.80;;;333.60;2329.60;;;;;;5051798;28;20032;-63
2021/05/28 05:05:09;;;;;;;4.55;2.42;;;333.70;2329.60;;;;;;5051927;28;20029;-63
2021/05/28 05:07:35;;;;;;;5.22;3.33;;;333.70;2329.60;;;;;;5051448;28;20128;-63
2021/05/28 05:10:01;;;;;;;3.30;2.28;;;358.40;2329.60;;;;;;5051941;28;20471;-62
2021/05/28 05:12:27;;;;;;;4.85;2.53;;;358.50;2329.60;;;;;;5051665;28;20033;-63
2021/05/28 05:14:53;;;;;;;4.40;2.88;;;358.50;2329.60;;;;;;5051644;28;20017;-63
2021/05/28 05:17:18;;;;;;;3.20;2.20;;;358.60;2329.60;;;;;;5051751;28;20529;-64
2021/05/28 05:19:44;;;;;;;4.75;2.42;;;358.70;2329.60;;;;;;5051749;28;20025;-63
2021/05/28 05:22:10;;;;;;;3.50;2.38;;;358.70;2329.60;;;;;;5051416;28;20021;-63
2021/05/28 05:24:36;;;;;;;4.90;2.97;;;358.80;2329.60;;;;;;5051452;28;20070;-63
2021/05/28 05:27:01;;;;;;;5.38;2.72;;;358.70;2329.60;;;;;;5051376;28;20029;-64
2021/05/28 05:29:27;;;;;;;6.88;2.63;;;358.80;2329.60;;;;;;5051394;28;20028;-63
2021/05/28 05:31:53;;;;;;;3.38;2.38;;;358.80;2329.60;;;;;;5051157;28;20032;-63
2021/05/28 05:34:20;;;;;;;3.55;2.00;;;358.80;2329.60;;;;;;5051308;28;20364;-64
2021/05/28 05:36:46;;;;;;;4.20;2.65;;;358.90;2329.60;;;;;;5051353;28;20112;-63
2021/05/28 05:39:11;;;;;;;5.57;2.58;;;359.00;2329.60;;;;;;5051081;28;20017;-64
2021/05/28 05:41:37;;;;;;;3.67;2.55;;;359.00;2329.60;;;;;;5051225;28;20056;-64
2021/05/28 05:44:03;;;;;;;4.13;2.58;;;359.20;2329.60;;;;;;5050821;28;20033;-64
2021/05/28 05:46:29;;;;;;;4.65;2.47;;;359.30;2329.60;;;;;;5051111;28;20056;-64
2021/05/28 05:48:55;;;;;;;4.65;2.40;;;359.30;2329.60;;;;;;5050699;28;20080;-64
2021/05/28 05:51:20;;;;;;;3.42;2.17;;;359.20;2329.60;;;;;;5051121;28;20017;-62
2021/05/28 05:53:47;;;;;;;5.05;2.50;;;384.00;2329.60;;;;;;5050337;28;20501;-63
2021/05/28 05:56:13;;;;;;;4.05;2.55;;;384.00;2329.60;;;;;;5050659;28;20021;-65
2021/05/28 05:58:40;;;;;;;3.35;2.30;;;384.10;2329.60;;;;;;5050962;28;20044;-62
2021/05/28 06:01:07;;;;;;;4.05;2.35;;;384.20;2329.60;;;;;;5050601;28;20052;-63
2021/05/28 06:03:33;;;;;;;3.47;1.92;;;384.40;2329.60;;;;;;5050504;28;20502;-64
2021/05/28 06:05:58;;;;;;;4.30;2.03;;;384.40;2329.60;;;;;;5050578;28;20055;-63
2021/05/28 06:08:24;;;;;;;3.03;1.77;;;384.30;2329.60;;;;;;5050224;28;20510;-64
2021/05/28 06:10:50;;;;;;;4.28;2.50;;;384.30;2329.60;;;;;;5050744;28;20095;-65
2021/05/28 06:13:16;;;;;;;3.22;2.10;;;384.60;2329.60;;;;;;5050357;28;20104;-66
2021/05/28 06:15:41;;;;;;;4.30;2.88;;;384.50;2329.60;;;;;;5050443;28;20109;-60
2021/05/28 06:18:07;;;;;;;3.05;1.90;;;384.90;2304.00;;;;;;5050529;28;20025;-62
2021/05/28 06:20:33;;;;;;;3.38;2.08;;;409.60;2329.60;;;;;;5050236;28;20078;-62
2021/05/28 06:23:00;;;;;;;3.42;2.40;;;409.70;2355.20;;;;;;5050451;28;20028;-65
2021/05/28 06:25:26;;;;;;;4.38;2.35;;;409.90;2278.40;;;;;;5050188;28;20025;-61
2021/05/28 06:27:52;;;;;;;3.30;2.17;;;409.70;2278.40;;;;;;5050227;28;20033;-62
2021/05/28 06:30:18;;;;;;;4.93;2.35;;;409.80;2278.40;;;;;;5050394;28;20501;-63
2021/05/28 06:32:44;;;;;;;4.13;2.13;;;409.70;2304.00;;;;;;5050212;28;20037;-62
2021/05/28 06:35:10;;;;;;;4.07;2.30;;;409.80;2252.80;;;;;;5050128;28;20031;-63
2021/05/28 06:37:36;;;;;;;4.97;2.85;;;409.90;2227.20;;;;;;5050075;28;20025;-65
2021/05/28 06:40:05;;;;;;;8.20;3.10;;;410.20;2227.20;;;;;;5050018;28;20378;-63
2021/05/28 06:42:30;;;;;;;2.83;2.05;;;410.30;2201.60;;;;;;5050134;28;20124;-61
2021/05/28 06:44:56;;;;;;;4.43;3.25;;;410.20;2227.20;;;;;;5050011;28;20115;-63
2021/05/28 06:47:22;;;;;;;3.70;2.05;;;410.30;2201.60;;;;;;5049809;28;20431;-63
2021/05/28 06:49:48;;;;;;;3.80;2.60;;;410.20;2201.60;;;;;;5050091;28;20025;-63
2021/05/28 06:52:14;;;;;;;3.97;2.20;;;410.00;2201.60;;;;;;5049917;28;20028;-63
2021/05/28 06:54:40;;;;;;;4.03;2.80;;;409.80;2227.20;;;;;;5049994;28;20021;-63
2021/05/28 06:57:06;;;;;;;5.22;2.88;;;409.70;2252.80;;;;;;5049919;28;20025;-63
2021/05/28 06:59:31;;;;;;;4.22;2.30;;;409.80;2252.80;;;;;;5049853;28;20017;-63
2021/05/28 07:01:57;;;;;;;5.10;2.20;;;409.90;2252.80;;;;;;5049670;28;20025;-63
2021/05/28 07:04:23;;;;;;;3.67;2.17;;;409.80;2252.80;;;;;;5050143;28;20036;-64
2021/05/28 07:06:49;;;;;;;4.45;2.50;;;409.80;2252.80;;;;;;5053982;28;20025;-64
2021/05/28 07:09:15;;;;;;;2.90;2.35;;;409.70;2227.20;;;;;;5053893;28;20028;-63
2021/05/28 07:11:40;;;;;;;4.03;2.20;;;409.70;2227.20;;;;;;5054002;28;20379;-63
2021/05/28 07:14:06;;;;;;;4.97;2.30;;;409.60;2252.80;;;;;;5053563;28;20040;-63
2021/05/28 07:16:33;;;;;;;5.60;2.88;;;409.70;2227.20;;;;;;5051899;28;20017;-64
2021/05/28 07:18:58;;;;;;;3.35;2.25;;;409.60;2227.20;;;;;;5052345;28;20490;-63
2021/05/28 07:21:27;;;;;;;3.67;2.22;;;409.60;2252.80;;;;;;5051933;28;20025;-63
2021/05/28 07:23:54;;;;;;;7.13;3.08;;;409.60;2252.80;;;;;;5052229;28;20039;-63
2021/05/28 07:26:19;;;;;;;4.85;2.28;;;384.90;2227.20;;;;;;5052177;28;20092;-64
2021/05/28 07:28:45;;;;;;;4.88;2.30;;;409.60;2278.40;;;;;;5051588;28;20473;-64
2021/05/28 07:31:11;;;;;;;3.60;2.40;;;384.90;2227.20;;;;;;5051774;28;20120;-64
2021/05/28 07:33:38;;;;;;;6.10;2.22;;;384.90;2227.20;;;;;;5052151;28;20132;-64
2021/05/28 07:36:05;;;;;;;8.73;2.47;;;409.60;2252.80;;;;;;5051651;28;20100;-64
2021/05/28 07:38:31;;;;;;;4.93;2.78;;;409.60;2252.80;;;;;;5051913;28;20029;-65
2021/05/28 07:40:57;;;;;;;4.05;2.60;;;409.70;2227.20;;;;;;5051745;28;20039;-63
2021/05/28 07:43:23;;;;;;;4.55;2.50;;;409.90;2227.20;;;;;;5051274;28;20104;-63
2021/05/28 07:45:51;;;;;;;4.55;2.42;;;409.90;2227.20;;;;;;5051800;28;20029;-64
2021/05/28 07:48:21;;;;;;;7.60;2.92;;;409.90;2227.20;;;;;;5051811;28;20045;-63
2021/05/28 07:50:48;;;;;;;4.65;2.90;;;410.10;2227.20;;;;;;5051603;28;20021;-63
2021/05/28 07:53:21;;;;;;;3.97;3.08;;;410.10;2201.60;;;;;;5051398;28;20600;-64
2021/05/28 07:55:48;;;;;;;4.15;3.00;;;410.30;2176.00;;;;;;5051334;28;20032;-63
2021/05/28 07:58:14;;;;;;;4.13;3.47;;;410.50;2150.40;;;;;;5051449;28;20067;-63
2021/05/28 08:00:40;;;;;;;4.55;2.60;;;435.30;2150.40;;;;;;5051647;28;20025;-63
2021/05/28 08:03:06;;;;;;;3.75;2.75;;;435.30;2150.40;;;;;;5053288;28;20094;-64
2021/05/28 08:05:32;;;;;;;5.10;2.92;;;435.20;2150.40;;;;;;5052835;28;20032;-63
2021/05/28 08:07:59;;;;;;;5.35;3.42;;;435.20;2150.40;;;;;;5052980;28;20063;-63
2021/05/28 08:10:24;;;;;;;4.00;3.20;;;435.30;2176.00;;;;;;5052769;28;20029;-63
2021/05/28 08:12:51;;;;;;;4.68;3.60;;;435.30;2150.40;;;;;;5052780;28;20367;-63
2021/05/28 08:15:20;;;;;;;5.15;3.88;;;435.50;2176.00;;;;;;5052853;28;20025;-63
2021/05/28 08:17:47;;;;;;;6.80;4.00;;;435.30;2176.00;;;;;;5051786;28;20052;-64
2021/05/28 08:20:14;;;;;;;4.90;3.90;;;410.50;2201.60;;;;;;5052567;28;20029;-63
2021/05/28 08:22:40;;;;;;;5.32;3.90;;;410.30;2201.60;;;;;;5052679;28;20043;-63
2021/05/28 08:25:06;;;;;;;6.45;4.45;;;410.30;2201.60;;;;;;5052590;28;20487;-63
2021/05/28 08:27:32;;;;;;;7.25;4.55;;;410.10;2252.80;;;;;;5052469;28;20463;-63
2021/05/28 08:29:58;;;;;;;7.35;4.80;;;410.10;2252.80;;;;;;5052696;28;20025;-63
2021/05/28 08:32:25;;;;;;;8.25;5.32;;;410.20;2227.20;;;;;;5052211;28;20048;-64
2021/05/28 08:34:51;;;;;;;6.88;5.05;;;410.00;2252.80;;;;;;5052583;28;20029;-63
2021/05/28 08:37:17;;;;;;;6.25;4.90;;;410.10;2252.80;;;;;;5052789;28;20025;-63
2021/05/28 08:39:42;;;;;;;7.13;5.13;;;410.20;2252.80;;;;;;5052119;28;20021;-63
2021/05/28 08:42:11;;;;;;;7.03;5.47;;;410.20;2252.80;;;;;;5052102;28;20056;-63
2021/05/28 08:44:37;;;;;;;6.30;4.95;;;410.20;2252.80;;;;;;5051903;28;20021;-63
2021/05/28 08:47:04;;;;;;;9.68;6.20;;;410.30;2227.20;;;;;;5051557;28;20363;-63
2021/05/28 08:49:30;;;;;;;7.82;6.25;;;410.40;2227.20;;;;;;5051573;28;20033;-63
2021/05/28 08:51:57;;;;;;;7.53;5.45;;;435.30;2176.00;;;;;;5051616;28;20021;-63
2021/05/28 08:54:24;;;;;;;6.53;5.05;;;435.60;2150.40;;;;;;5051959;28;20025;-62
2021/05/28 08:56:51;;;;;;;5.90;4.32;;;435.80;2124.80;;;;;;5051977;28;20025;-62
2021/05/28 08:59:17;;;;;;;6.53;5.28;;;435.90;2099.20;;;;;;5034644;28;20387;-62
2021/05/28 09:01:43;;;;;;;5.72;4.78;;;436.00;2073.60;;;;;;5051570;28;20039;-62
2021/05/28 09:04:12;;;;;;;5.80;4.47;;;436.10;2073.60;;;;;;5051791;28;20037;-62
2021/05/28 09:06:45;;;;;;;5.78;4.55;;;436.10;2048.00;;;;;;5051957;28;20029;-62
2021/05/28 09:09:15;;;;;;;4.82;4.03;;;460.90;2099.20;;;;;;5051644;28;20033;-62
2021/05/28 09:11:58;;;;;;;5.47;4.38;;;461.00;2048.00;;;;;;5051783;28;20565;-61
2021/05/28 09:14:41;;;;;;;4.63;4.00;;;461.30;2022.40;;;;;;5051410;28;20029;-62
2021/05/28 09:17:09;;;;;;;6.97;4.25;;;461.30;2022.40;;;;;;5051555;28;20502;-63
2021/05/28 09:19:36;;;;;;;5.97;3.90;;;461.40;1996.80;;;;;;5051444;28;20128;-63
2021/05/28 09:22:10;;;;;;;5.53;3.90;;;461.70;1971.20;;;;;;5051486;28;20028;-62
2021/05/28 09:24:36;;;;;;;3.83;2.63;;;461.70;1996.80;;;;;;5051547;28;20494;-62
2021/05/28 09:27:24;;;;;;;4.03;2.95;;;461.70;1971.20;;;;;;5051126;28;20028;-62
2021/05/28 09:30:10;;;;;;;4.93;2.47;;;486.40;1945.60;;;;;;5051741;28;20028;-61
2021/05/28 09:32:38;;;;;;;3.83;3.22;;;486.50;1920.00;;;;;;5051237;28;20037;-61
2021/05/28 09:35:08;;;;;;;4.45;3.38;;;486.60;1920.00;;;;;;5051232;28;20497;-61
2021/05/28 09:37:40;;;;;;;4.00;3.10;;;486.80;1920.00;;;;;;5051136;28;20025;-61
2021/05/28 09:40:31;;;;;;;6.65;4.43;;;487.00;1920.00;;;;;;5051084;28;20025;-62
2021/05/28 09:43:03;;;;;;;4.20;3.45;;;512.00;1894.40;;;;;;5051005;28;20052;-62
2021/05/28 09:45:36;;;;;;;6.93;3.50;;;512.10;1894.40;;;;;;5051075;28;20427;-62
2021/05/28 09:48:05;;;;;;;3.80;2.70;;;512.70;1817.60;;;;;;5050827;28;20029;-62
2021/05/28 09:50:34;;;;;;;3.75;3.15;;;512.60;1792.00;;;;;;5051121;28;20025;-62
2021/05/28 09:53:04;;;;;;;3.75;2.67;;;512.70;1792.00;;;;;;5050824;28;20029;-62
2021/05/28 09:55:35;;;;;;;3.63;2.58;;;512.80;1766.40;;;;;;5050961;28;20021;-62
2021/05/28 09:58:01;;;;;;;3.70;2.80;;;537.80;1766.40;;;;;;5050594;28;20036;-62
2021/05/28 10:00:34;;;;;;;3.55;2.63;;;537.80;1740.80;;;;;;5050676;28;20048;-62
2021/05/28 10:03:12;;;;;;;3.00;2.25;;;537.90;1766.40;;;;;;5050767;28;20029;-62
2021/05/28 10:05:40;;;;;;;2.53;2.00;;;538.10;1766.40;;;;;;5050747;28;20086;-61
2021/05/28 10:08:11;;;;;;;2.63;1.73;;;538.20;1715.20;;;;;;5050264;28;20029;-62
2021/05/28 10:10:39;;;;;;;2.58;1.80;;;538.20;1664.00;;;;;;5050531;28;20028;-62
2021/05/28 10:13:12;;;;;;;3.63;1.73;;;538.50;1638.40;;;;;;5050328;28;20035;-62
2021/05/28 10:15:52;;;;;;;3.60;1.67;;;538.50;1689.60;;;;;;5050494;28;20112;-62
2021/05/28 10:18:18;;;;;;;2.00;1.60;;;563.30;1689.60;;;;;;5050448;28;20071;-62
2021/05/28 10:20:50;;;;;;;2.38;1.48;;;563.60;1664.00;;;;;;5050486;28;20047;-62
2021/05/28 10:23:17;;;;;;;2.65;1.75;;;563.70;1664.00;;;;;;5050290;28;20497;-62
2021/05/28 10:25:44;;;;;;;2.78;1.73;;;564.10;1587.20;;;;;;5050201;28;20433;-62
2021/05/28 10:28:19;;;;;;;2.75;1.92;;;564.10;1612.80;;;;;;5050363;28;20043;-62
2021/05/28 10:30:46;;;;;;;2.83;1.55;;;564.10;1612.80;;;;;;5050380;28;20087;-62
2021/05/28 10:33:31;;;;;;;2.25;1.70;;;588.80;1587.20;;;;;;5050292;28;20033;-62
2021/05/28 10:36:05;;;;;;;3.50;1.60;;;589.00;1561.60;;;;;;5050664;28;20055;-62
2021/05/28 10:38:34;;;;;;;7.65;1.92;;;589.40;1510.40;;;;;;5050149;28;20382;-63
2021/05/28 10:41:19;;;;;;;5.97;2.28;;;614.40;1484.80;;;;;;5049667;28;20032;-63
2021/05/28 10:43:48;;;;;;;3.13;2.40;;;614.80;1459.20;;;;;;5050132;28;20150;-61
2021/05/28 10:46:14;;;;;;;2.97;2.10;;;615.00;1408.00;;;;;;5050166;28;20406;-61
2021/05/28 10:48:40;;;;;;;3.95;1.88;;;615.10;1484.80;;;;;;5050118;28;20123;-64
2021/05/28 10:51:09;;;;;;;3.05;2.03;;;614.70;1408.00;;;;;;5049817;28;20021;-63
2021/05/28 10:53:35;;;;;;;4.85;1.92;;;614.80;1433.60;;;;;;5049644;28;20104;-64
2021/05/28 10:56:13;;;;;;;3.63;1.70;;;614.50;1433.60;;;;;;5049941;28;20028;-63
2021/05/28 10:58:59;;;;;;;2.85;1.80;;;589.70;1382.40;;;;;;5049975;28;20036;-64
2021/05/28 11:01:47;;;;;;;2.58;2.03;;;589.50;1459.20;;;;;;5049690;28;20372;-63
2021/05/28 11:04:21;;;;;;;3.95;1.80;;;589.40;1408.00;;;;;;5049925;28;20043;-64
2021/05/28 11:06:59;;;;;;;3.13;2.00;;;589.50;1433.60;;;;;;5050368;28;20374;-63
2021/05/28 11:09:54;;;;;;;3.97;2.47;;;589.10;1459.20;;;;;;5049647;28;20064;-64
2021/05/28 11:12:26;;;;;;;2.90;2.13;;;589.10;1433.60;;;;;;4949770;29;20375;-65
2021/05/28 11:15:12;;;;;;;3.40;2.67;;;589.10;1408.00;;;;;;4949690;29;20034;-66
2021/05/28 11:17:58;;;;;;;4.45;2.90;;;589.20;1408.00;;;;;;4949904;29;20035;-63
2021/05/28 11:20:24;;;;;;;4.72;2.42;;;589.70;1408.00;;;;;;4949596;29;20032;-64
2021/05/28 11:22:51;;;;;;;3.72;3.10;;;589.70;1408.00;;;;;;4933795;29;20042;-64
2021/05/28 11:25:19;;;;;;;3.50;2.78;;;589.50;1356.80;;;;;;4950034;29;20027;-63
2021/05/28 11:27:51;;;;;;;4.00;3.35;;;589.30;1331.20;;;;;;4949756;29;20110;-64
2021/05/28 11:30:18;;;;;;;6.20;3.33;;;589.00;1382.40;;;;;;4949862;29;20031;-64
2021/05/28 11:32:44;;;;;;;6.25;3.85;;;564.10;1408.00;;;;;;4949709;29;20393;-64
2021/05/28 11:35:20;;;;;;;4.28;3.45;;;564.10;1459.20;;;;;;4949609;29;20039;-64
2021/05/28 11:38:05;;;;;;;5.78;3.53;;;563.80;1408.00;;;;;;4949675;29;20121;-64
2021/05/28 11:40:33;;;;;;;5.38;3.90;;;563.60;1433.60;;;;;;4949553;29;20038;-64
2021/05/28 11:43:16;;;;;;;6.18;3.70;;;563.60;1459.20;;;;;;4949490;29;20445;-64
2021/05/28 11:45:51;;;;;;;4.15;3.17;;;563.50;1484.80;;;;;;4949462;29;20381;-64
2021/05/28 11:48:20;;;;;;;4.45;3.33;;;563.30;1484.80;;;;;;4980875;28;20503;-63
2021/05/28 11:50:49;;;;;;;4.82;3.50;;;538.20;1484.80;;;;;;5050679;28;20359;-63
2021/05/28 11:53:16;;;;;;;3.90;3.05;;;538.40;1510.40;;;;;;5053312;28;20037;-63
2021/05/28 11:55:49;;;;;;;4.20;3.10;;;538.50;1536.00;;;;;;5053481;28;20304;-63
2021/05/28 11:58:17;;;;;;;5.13;3.30;;;563.30;1510.40;;;;;;5053298;28;20049;-64
2021/05/28 12:00:45;;;;;;;4.15;3.28;;;538.50;1510.40;;;;;;5052762;28;20052;-64
2021/05/28 12:03:12;;;;;;;4.65;3.63;;;563.20;1536.00;;;;;;5053134;28;20375;-64
2021/05/28 12:05:41;;;;;;;6.05;2.85;;;538.20;1510.40;;;;;;5053049;28;20052;-64
2021/05/28 12:08:10;;;;;;;4.20;3.63;;;537.90;1536.00;;;;;;5052809;28;20032;-63
2021/05/28 12:10:40;;;;;;;6.32;3.58;;;538.00;1561.60;;;;;;5052772;28;20134;-63
2021/05/28 12:13:17;;;;;;;4.20;3.78;;;538.30;1561.60;;;;;;5052728;28;20097;-63
2021/05/28 12:15:47;;;;;;;3.55;3.13;;;563.30;1561.60;;;;;;5052801;28;20021;-64
2021/05/28 12:18:17;;;;;;;5.32;3.35;;;563.30;1484.80;;;;;;5052778;28;20033;-63
2021/05/28 12:20:53;;;;;;;4.50;3.38;;;563.20;1536.00;;;;;;5052623;28;20467;-63
2021/05/28 12:23:25;;;;;;;3.25;2.95;;;563.30;1510.40;;;;;;5053161;28;20375;-63